Time;durP1;ratioP1;P1;durP2;ratioP2;P2;SDS_P1;SDS_P2;PMS_P1;PMS_P2;Temp;Humidity;BMP_temperature;BMP_pressure;BME280_temperature;BME280_humidity;BME280_pressure;Samples;Min_cycle;Max_cycle;Signal;HPM_P1;HPM_P2
2023/05/17 00:01:33;;;;;;;50.15;8.90;;;14.60;89.40;;;;;;4983131;28;20027;-58
2023/05/17 00:03:59;;;;;;;48.65;9.32;;;14.60;89.10;;;;;;4967259;28;20041;-59
2023/05/17 00:06:24;;;;;;;42.42;9.05;;;14.60;89.20;;;;;;5016267;28;20058;-58
2023/05/17 00:08:50;;;;;;;59.80;9.05;;;14.50;89.30;;;;;;4985825;28;20030;-59
2023/05/17 00:11:15;;;;;;;41.42;8.38;;;14.50;89.50;;;;;;4985203;28;20162;-59
2023/05/17 00:13:41;;;;;;;46.00;9.18;;;14.50;89.20;;;;;;4983284;28;20030;-59
2023/05/17 00:16:07;;;;;;;42.47;8.18;;;14.50;89.20;;;;;;4985166;28;20050;-59
2023/05/17 00:18:32;;;;;;;43.10;7.88;;;14.50;89.20;;;;;;4989743;28;20031;-59
2023/05/17 00:20:58;;;;;;;35.45;8.40;;;14.40;89.00;;;;;;4988953;28;20041;-59
2023/05/17 00:23:24;;;;;;;30.17;7.15;;;14.40;89.00;;;;;;5003629;28;20050;-59
2023/05/17 00:25:49;;;;;;;36.80;7.93;;;14.40;89.20;;;;;;4986508;28;20105;-59
2023/05/17 00:28:15;;;;;;;49.42;8.55;;;14.40;89.20;;;;;;4988776;28;20349;-59
2023/05/17 00:30:41;;;;;;;39.97;7.85;;;14.30;89.10;;;;;;4987697;28;20447;-59
2023/05/17 00:33:06;;;;;;;31.30;7.43;;;14.40;89.10;;;;;;4989059;28;20039;-59
2023/05/17 00:35:32;;;;;;;29.48;7.32;;;14.30;88.90;;;;;;4986733;28;20042;-59
2023/05/17 00:37:57;;;;;;;43.25;7.22;;;14.30;89.00;;;;;;4987486;28;20035;-59
2023/05/17 00:40:23;;;;;;;41.13;7.60;;;14.30;89.70;;;;;;4986706;28;20034;-59
2023/05/17 00:42:48;;;;;;;43.35;7.00;;;14.30;88.90;;;;;;4986824;28;20035;-58
2023/05/17 00:45:14;;;;;;;36.08;7.75;;;14.30;88.80;;;;;;4987380;28;20058;-59
2023/05/17 00:47:41;;;;;;;30.70;6.45;;;14.30;88.90;;;;;;4987286;28;20099;-59
2023/05/17 00:50:07;;;;;;;30.48;6.60;;;14.20;88.90;;;;;;4986929;28;20494;-58
2023/05/17 00:52:32;;;;;;;31.38;6.97;;;14.20;88.80;;;;;;4986576;28;20118;-59
2023/05/17 00:54:58;;;;;;;27.70;6.50;;;14.20;88.80;;;;;;4987155;28;20027;-59
2023/05/17 00:57:23;;;;;;;30.60;6.47;;;14.20;88.80;;;;;;4986505;28;20345;-59
2023/05/17 00:59:49;;;;;;;31.45;6.80;;;14.20;88.80;;;;;;4987884;28;20464;-59
2023/05/17 01:02:15;;;;;;;29.13;6.40;;;14.20;88.70;;;;;;4987045;28;20042;-59
2023/05/17 01:04:41;;;;;;;27.77;6.40;;;14.10;88.80;;;;;;4988058;28;20089;-59
2023/05/17 01:07:08;;;;;;;34.22;6.53;;;14.20;88.80;;;;;;4986887;28;20106;-58
2023/05/17 01:09:34;;;;;;;25.45;5.60;;;14.10;89.30;;;;;;4985600;28;20467;-59
2023/05/17 01:12:02;;;;;;;18.70;5.53;;;14.20;88.60;;;;;;4986889;28;20095;-58
2023/05/17 01:14:40;;;;;;;26.55;6.55;;;14.10;88.60;;;;;;4988741;28;20035;-59
2023/05/17 01:17:11;;;;;;;23.27;6.07;;;14.10;88.60;;;;;;4986585;28;20022;-59
2023/05/17 01:19:53;;;;;;;20.05;5.85;;;14.10;88.30;;;;;;4987124;28;20027;-59
2023/05/17 01:22:41;;;;;;;27.02;6.55;;;14.10;88.30;;;;;;4987148;28;20132;-59
2023/05/17 01:25:10;;;;;;;28.00;6.30;;;14.10;88.40;;;;;;4988386;28;20031;-58
2023/05/17 01:27:35;;;;;;;25.15;5.93;;;14.10;88.40;;;;;;4985710;28;20038;-59
2023/05/17 01:30:01;;;;;;;20.00;5.90;;;14.10;88.40;;;;;;4986889;28;20030;-59
2023/05/17 01:32:27;;;;;;;19.98;5.13;;;14.10;88.20;;;;;;4986761;28;20026;-59
2023/05/17 01:34:52;;;;;;;23.33;5.72;;;14.10;88.00;;;;;;4970768;28;20137;-59
2023/05/17 01:37:18;;;;;;;24.55;6.32;;;14.10;87.90;;;;;;4988275;28;20042;-59
2023/05/17 01:39:43;;;;;;;17.30;5.15;;;14.00;87.90;;;;;;4988093;28;20027;-58
2023/05/17 01:42:23;;;;;;;19.45;5.28;;;14.00;88.00;;;;;;4986507;28;20023;-59
2023/05/17 01:45:10;;;;;;;24.83;4.75;;;14.00;88.00;;;;;;4977200;28;20030;-59
2023/05/17 01:48:03;;;;;;;15.40;4.88;;;14.00;87.90;;;;;;4986559;28;20027;-59
2023/05/17 01:50:29;;;;;;;20.92;5.13;;;14.00;87.80;;;;;;4987344;28;20050;-58
2023/05/17 01:53:07;;;;;;;23.55;5.55;;;14.00;87.60;;;;;;4985589;28;20049;-58
2023/05/17 01:55:48;;;;;;;26.83;6.38;;;14.00;87.30;;;;;;4986512;28;20054;-58
2023/05/17 01:58:14;;;;;;;21.27;5.75;;;14.00;87.80;;;;;;4985330;28;20478;-59
2023/05/17 02:00:41;;;;;;;15.02;5.57;;;14.00;86.90;;;;;;4985670;28;20065;-58
2023/05/17 02:03:11;;;;;;;20.42;5.30;;;13.90;86.80;;;;;;4970387;28;20031;-59
2023/05/17 02:05:36;;;;;;;16.38;5.00;;;13.90;86.70;;;;;;4985051;28;20100;-58
2023/05/17 02:08:02;;;;;;;22.10;5.88;;;13.90;86.50;;;;;;4985470;28;20062;-58
2023/05/17 02:10:28;;;;;;;21.17;6.40;;;13.90;86.40;;;;;;4986598;28;20026;-58
2023/05/17 02:12:53;;;;;;;17.80;6.28;;;13.90;86.60;;;;;;4985836;28;20106;-59
2023/05/17 02:15:19;;;;;;;14.23;5.90;;;13.80;86.60;;;;;;5017855;28;20035;-59
2023/05/17 02:17:45;;;;;;;16.92;5.72;;;13.80;86.70;;;;;;4986575;28;20037;-59
2023/05/17 02:20:11;;;;;;;12.05;5.07;;;13.80;86.80;;;;;;4986044;28;20031;-59
2023/05/17 02:22:37;;;;;;;17.30;5.57;;;13.80;86.80;;;;;;4970031;28;20030;-58
2023/05/17 02:25:03;;;;;;;12.32;5.35;;;13.80;87.00;;;;;;4985719;28;20107;-58
2023/05/17 02:27:29;;;;;;;15.93;4.55;;;13.80;87.20;;;;;;4984562;28;20090;-59
2023/05/17 02:29:55;;;;;;;20.48;4.70;;;13.80;87.00;;;;;;4986199;28;20027;-59
2023/05/17 02:32:20;;;;;;;16.90;4.35;;;13.80;86.50;;;;;;4985238;28;20086;-59
2023/05/17 02:34:46;;;;;;;13.07;4.53;;;13.80;86.80;;;;;;4986324;28;20038;-58
2023/05/17 02:37:11;;;;;;;13.15;4.05;;;13.80;86.90;;;;;;4986317;28;20035;-59
2023/05/17 02:39:37;;;;;;;11.52;4.20;;;13.80;87.00;;;;;;4986062;28;20177;-59
2023/05/17 02:42:02;;;;;;;11.07;4.32;;;13.80;86.90;;;;;;4984584;28;20126;-58
2023/05/17 02:44:28;;;;;;;12.75;4.53;;;13.80;86.90;;;;;;4985727;28;20035;-58
2023/05/17 02:46:54;;;;;;;12.90;4.15;;;13.80;87.00;;;;;;4986903;28;20041;-59
2023/05/17 02:49:19;;;;;;;16.30;4.72;;;13.80;86.90;;;;;;4985921;28;20114;-58
2023/05/17 02:51:45;;;;;;;9.40;3.63;;;13.80;86.90;;;;;;4986337;28;20035;-58
2023/05/17 02:54:10;;;;;;;12.75;4.05;;;13.80;86.80;;;;;;4985386;28;20042;-58
2023/05/17 02:56:36;;;;;;;14.93;4.15;;;13.80;86.70;;;;;;4984827;28;20070;-58
2023/05/17 02:59:01;;;;;;;8.70;3.65;;;13.80;86.80;;;;;;4984118;28;20046;-58
2023/05/17 03:01:27;;;;;;;14.50;3.90;;;13.80;86.60;;;;;;4984396;28;20027;-58
2023/05/17 03:03:52;;;;;;;8.63;3.95;;;13.80;86.60;;;;;;5001649;28;20031;-58
2023/05/17 03:06:18;;;;;;;8.77;3.88;;;13.80;86.60;;;;;;4983838;28;20081;-58
2023/05/17 03:08:43;;;;;;;10.82;4.00;;;13.70;86.50;;;;;;4986362;28;20035;-58
2023/05/17 03:11:09;;;;;;;7.93;3.30;;;13.70;86.40;;;;;;4984284;28;20027;-58
2023/05/17 03:13:34;;;;;;;13.80;3.72;;;13.70;86.30;;;;;;4985434;28;20030;-58
2023/05/17 03:16:01;;;;;;;11.85;3.53;;;13.70;86.20;;;;;;4983496;28;20136;-58
2023/05/17 03:18:26;;;;;;;9.32;3.03;;;13.70;86.00;;;;;;4984470;28;20089;-58
2023/05/17 03:20:52;;;;;;;8.98;3.40;;;13.70;85.90;;;;;;4985711;28;20034;-58
2023/05/17 03:23:17;;;;;;;10.60;3.53;;;13.70;85.90;;;;;;5016636;28;20034;-58
2023/05/17 03:25:43;;;;;;;9.82;3.50;;;13.70;85.70;;;;;;4983907;28;20038;-58
2023/05/17 03:28:08;;;;;;;9.00;3.53;;;13.70;85.60;;;;;;4985826;28;20027;-58
2023/05/17 03:30:34;;;;;;;7.45;3.38;;;13.60;85.50;;;;;;4964952;28;20035;-58
2023/05/17 03:32:59;;;;;;;16.13;5.20;;;13.60;85.40;;;;;;4964829;28;20038;-58
2023/05/17 03:35:25;;;;;;;12.07;6.03;;;13.60;85.30;;;;;;4990625;28;20030;-58
2023/05/17 03:37:51;;;;;;;17.55;5.85;;;13.60;85.00;;;;;;4983801;28;20447;-58
2023/05/17 03:40:16;;;;;;;10.50;5.15;;;13.60;85.00;;;;;;4983638;28;20039;-59
2023/05/17 03:42:42;;;;;;;12.40;5.18;;;13.60;85.00;;;;;;4984672;28;20077;-58
2023/05/17 03:45:07;;;;;;;12.43;5.13;;;13.60;84.90;;;;;;4985010;28;20041;-58
2023/05/17 03:47:33;;;;;;;24.35;5.68;;;13.60;84.90;;;;;;4985142;28;20027;-59
2023/05/17 03:49:59;;;;;;;19.65;5.75;;;13.60;84.80;;;;;;4984723;28;20042;-58
2023/05/17 03:52:24;;;;;;;18.02;5.60;;;13.60;84.80;;;;;;4985757;28;20027;-59
2023/05/17 03:54:50;;;;;;;19.98;6.07;;;13.60;84.70;;;;;;4984034;28;20087;-58
2023/05/17 03:57:15;;;;;;;26.33;5.70;;;13.60;84.60;;;;;;4983373;28;20422;-58
2023/05/17 03:59:41;;;;;;;29.35;6.07;;;13.60;84.50;;;;;;4985281;28;20372;-58
2023/05/17 04:02:07;;;;;;;21.52;5.55;;;13.60;84.40;;;;;;4983801;28;20074;-59
2023/05/17 04:04:32;;;;;;;26.15;5.78;;;13.60;84.20;;;;;;4984817;28;20042;-58
2023/05/17 04:06:58;;;;;;;33.70;6.10;;;13.50;83.70;;;;;;4984228;28;20114;-59
2023/05/17 04:09:24;;;;;;;24.60;5.07;;;13.50;83.10;;;;;;4967207;28;20045;-58
2023/05/17 04:11:49;;;;;;;18.02;5.15;;;13.50;83.00;;;;;;4983952;28;20035;-59
2023/05/17 04:14:16;;;;;;;27.67;5.85;;;13.50;83.50;;;;;;4984085;28;20037;-59
2023/05/17 04:16:42;;;;;;;25.55;5.47;;;13.60;83.40;;;;;;4964774;28;20054;-58
2023/05/17 04:19:08;;;;;;;16.20;4.65;;;13.50;83.10;;;;;;4966281;29;20043;-58
2023/05/17 04:21:33;;;;;;;26.60;5.28;;;13.50;83.30;;;;;;4982453;28;20372;-58
2023/05/17 04:23:59;;;;;;;27.33;6.00;;;13.50;83.40;;;;;;4985409;28;20061;-58
2023/05/17 04:26:25;;;;;;;24.15;5.20;;;13.50;83.40;;;;;;4983316;28;20031;-58
2023/05/17 04:28:51;;;;;;;23.60;5.15;;;13.50;83.40;;;;;;4984243;28;20027;-58
2023/05/17 04:31:16;;;;;;;18.58;5.95;;;13.50;83.30;;;;;;4983620;28;20090;-58
2023/05/17 04:33:42;;;;;;;21.73;5.32;;;13.50;83.30;;;;;;4967508;28;20578;-59
2023/05/17 04:36:07;;;;;;;17.73;5.15;;;13.50;83.40;;;;;;4983029;28;20030;-58
2023/05/17 04:38:33;;;;;;;21.23;4.68;;;13.50;83.40;;;;;;4982505;28;20026;-59
2023/05/17 04:41:05;;;;;;;18.23;4.65;;;13.50;83.30;;;;;;4985091;28;20042;-58
2023/05/17 04:43:31;;;;;;;12.18;4.63;;;13.50;83.60;;;;;;4985477;28;20057;-58
2023/05/17 04:45:57;;;;;;;18.25;5.32;;;13.50;83.60;;;;;;4983384;28;20399;-58
2023/05/17 04:48:24;;;;;;;21.52;4.95;;;13.50;83.40;;;;;;4984475;28;20031;-58
2023/05/17 04:50:49;;;;;;;21.27;4.35;;;13.50;83.10;;;;;;4983147;28;20097;-58
2023/05/17 04:53:15;;;;;;;20.50;4.82;;;13.50;83.10;;;;;;4984300;28;20027;-58
2023/05/17 04:55:41;;;;;;;10.23;4.38;;;13.50;83.30;;;;;;4983567;28;20341;-58
2023/05/17 04:58:06;;;;;;;10.90;4.03;;;13.50;83.30;;;;;;4983405;28;20062;-58
2023/05/17 05:00:32;;;;;;;13.15;3.90;;;13.50;83.30;;;;;;4983275;28;20026;-58
2023/05/17 05:02:57;;;;;;;17.73;4.20;;;13.50;83.30;;;;;;4985680;28;20038;-58
2023/05/17 05:05:24;;;;;;;16.17;4.50;;;13.50;83.30;;;;;;4986236;28;20038;-58
2023/05/17 05:07:50;;;;;;;18.63;4.00;;;13.50;83.10;;;;;;4986651;28;20069;-58
2023/05/17 05:10:15;;;;;;;12.15;3.97;;;13.50;83.10;;;;;;4986923;28;20117;-58
2023/05/17 05:12:41;;;;;;;9.25;3.70;;;13.50;83.40;;;;;;4988119;28;20042;-58
2023/05/17 05:15:07;;;;;;;13.23;3.97;;;13.50;83.40;;;;;;4986515;28;20038;-58
2023/05/17 05:17:33;;;;;;;10.65;3.67;;;13.40;83.50;;;;;;4967311;28;20031;-58
2023/05/17 05:19:58;;;;;;;13.70;3.70;;;13.50;83.60;;;;;;4973009;28;20038;-58
2023/05/17 05:22:24;;;;;;;12.55;3.28;;;13.40;83.50;;;;;;5002526;28;20062;-58
2023/05/17 05:24:50;;;;;;;11.00;3.70;;;13.40;83.50;;;;;;4987459;28;20030;-58
2023/05/17 05:27:15;;;;;;;11.02;3.83;;;13.40;83.50;;;;;;4987027;28;20081;-59
2023/05/17 05:29:41;;;;;;;12.77;3.15;;;13.40;83.50;;;;;;4970234;28;20027;-58
2023/05/17 05:32:07;;;;;;;11.85;3.47;;;13.40;83.50;;;;;;4986134;28;20448;-58
2023/05/17 05:34:33;;;;;;;12.50;3.67;;;13.40;83.40;;;;;;4986644;28;20147;-58
2023/05/17 05:36:58;;;;;;;9.52;3.17;;;13.40;83.40;;;;;;4986310;28;20034;-58
2023/05/17 05:39:24;;;;;;;14.65;3.60;;;13.40;83.20;;;;;;4987797;28;20038;-58
2023/05/17 05:41:50;;;;;;;15.40;3.72;;;13.40;83.30;;;;;;4984590;28;20537;-58
2023/05/17 05:44:16;;;;;;;10.50;2.90;;;13.50;83.30;;;;;;4985937;28;20118;-58
2023/05/17 05:46:42;;;;;;;10.75;3.50;;;13.40;83.30;;;;;;4968838;28;20115;-58
2023/05/17 05:49:07;;;;;;;9.15;3.50;;;13.40;83.30;;;;;;4968862;29;20103;-58
2023/05/17 05:51:33;;;;;;;7.72;2.83;;;13.50;83.10;;;;;;4967939;28;20023;-58
2023/05/17 05:53:59;;;;;;;10.30;2.75;;;13.40;83.00;;;;;;4986918;28;20053;-58
2023/05/17 05:56:26;;;;;;;9.32;2.83;;;13.50;83.00;;;;;;4986098;28;20170;-58
2023/05/17 05:58:52;;;;;;;9.60;2.67;;;13.50;83.00;;;;;;4984817;28;20039;-58
2023/05/17 06:01:17;;;;;;;10.25;3.08;;;13.50;83.00;;;;;;4984489;28;20030;-58
2023/05/17 06:03:43;;;;;;;9.27;2.90;;;13.50;82.70;;;;;;4985668;28;20058;-58
2023/05/17 06:06:09;;;;;;;8.88;2.83;;;13.50;82.70;;;;;;4985847;28;20065;-58
2023/05/17 06:08:34;;;;;;;7.40;2.55;;;13.40;82.70;;;;;;4987214;28;20069;-58
2023/05/17 06:11:00;;;;;;;8.05;3.05;;;13.50;82.70;;;;;;4987220;28;20041;-58
2023/05/17 06:13:25;;;;;;;9.30;2.60;;;13.50;82.70;;;;;;4993229;28;20105;-58
2023/05/17 06:15:51;;;;;;;8.07;2.30;;;13.50;82.60;;;;;;4984894;28;20383;-58
2023/05/17 06:18:16;;;;;;;12.30;3.17;;;13.50;82.20;;;;;;4987978;28;20027;-58
2023/05/17 06:20:42;;;;;;;8.35;2.67;;;13.50;82.30;;;;;;4986087;28;20165;-58
2023/05/17 06:23:08;;;;;;;6.78;2.65;;;13.50;82.10;;;;;;4993171;28;20131;-58
2023/05/17 06:25:33;;;;;;;10.23;2.38;;;13.50;82.00;;;;;;4989846;28;20035;-59
2023/05/17 06:28:01;;;;;;;7.43;2.40;;;13.50;82.20;;;;;;4990320;28;20027;-58
2023/05/17 06:30:27;;;;;;;5.57;2.05;;;13.50;82.10;;;;;;4984396;28;20172;-58
2023/05/17 06:32:52;;;;;;;8.95;2.38;;;13.50;81.80;;;;;;4983526;28;20031;-58
2023/05/17 06:35:18;;;;;;;7.80;2.20;;;13.50;81.60;;;;;;4991533;28;20332;-58
2023/05/17 06:37:43;;;;;;;4.75;2.20;;;13.60;81.60;;;;;;4985277;28;20491;-58
2023/05/17 06:40:09;;;;;;;11.75;2.58;;;13.60;81.80;;;;;;4987561;28;20061;-58
2023/05/17 06:42:35;;;;;;;17.23;3.20;;;13.60;81.70;;;;;;4989948;28;20020;-58
2023/05/17 06:45:00;;;;;;;17.25;3.28;;;13.60;81.40;;;;;;4981703;28;20088;-58
2023/05/17 06:47:26;;;;;;;19.02;2.63;;;13.60;81.40;;;;;;4985713;28;20018;-58
2023/05/17 06:49:52;;;;;;;12.88;2.95;;;13.70;81.30;;;;;;4984467;28;20023;-58
2023/05/17 06:52:17;;;;;;;12.52;2.75;;;13.70;81.10;;;;;;4971779;28;20058;-58
2023/05/17 06:54:43;;;;;;;11.50;2.80;;;13.70;80.90;;;;;;4984934;28;20483;-58
2023/05/17 06:57:08;;;;;;;11.65;2.90;;;13.70;80.90;;;;;;4992483;28;20041;-58
2023/05/17 06:59:35;;;;;;;11.95;2.83;;;13.70;81.00;;;;;;4989993;28;20534;-58
2023/05/17 07:02:00;;;;;;;16.42;3.25;;;13.80;80.80;;;;;;4994615;28;20038;-59
2023/05/17 07:04:26;;;;;;;16.95;3.60;;;13.80;80.80;;;;;;4986307;28;20117;-58
2023/05/17 07:06:51;;;;;;;20.40;3.65;;;13.80;80.50;;;;;;5002416;28;20125;-58
2023/05/17 07:09:18;;;;;;;15.82;3.75;;;13.80;80.40;;;;;;4990205;28;20106;-58
2023/05/17 07:11:44;;;;;;;22.15;3.65;;;13.80;80.30;;;;;;4985181;28;20167;-58
2023/05/17 07:14:09;;;;;;;30.23;4.65;;;13.80;80.30;;;;;;4984465;28;20065;-59
2023/05/17 07:16:35;;;;;;;21.77;4.57;;;13.90;80.20;;;;;;4984645;28;20035;-58
2023/05/17 07:19:00;;;;;;;29.10;4.10;;;13.90;80.00;;;;;;4985402;28;20065;-58
2023/05/17 07:21:26;;;;;;;61.10;6.72;;;13.90;80.10;;;;;;4985763;28;20027;-58
2023/05/17 07:23:51;;;;;;;35.17;5.05;;;13.90;79.80;;;;;;4969994;28;20094;-58
2023/05/17 07:26:20;;;;;;;27.00;5.20;;;13.90;79.60;;;;;;4978576;28;20026;-58
2023/05/17 07:28:46;;;;;;;36.95;5.95;;;13.90;79.60;;;;;;4979330;28;20054;-58
2023/05/17 07:31:12;;;;;;;34.95;5.40;;;13.90;79.40;;;;;;4967114;28;20046;-58
2023/05/17 07:33:37;;;;;;;31.17;5.70;;;14.00;79.40;;;;;;4976481;28;20035;-58
2023/05/17 07:36:04;;;;;;;33.63;5.53;;;14.00;79.20;;;;;;4983712;28;20039;-58
2023/05/17 07:38:30;;;;;;;33.45;5.18;;;14.00;79.10;;;;;;4984793;28;20360;-58
2023/05/17 07:40:55;;;;;;;31.85;5.05;;;14.00;78.70;;;;;;4984614;28;20038;-58
2023/05/17 07:43:21;;;;;;;30.55;5.07;;;14.00;78.80;;;;;;5000780;28;20042;-58
2023/05/17 07:45:46;;;;;;;35.97;6.10;;;14.10;79.00;;;;;;4978727;28;20077;-58
2023/05/17 07:48:12;;;;;;;50.97;5.75;;;14.10;78.90;;;;;;4984066;28;20030;-58
2023/05/17 07:50:38;;;;;;;27.08;4.53;;;14.10;78.50;;;;;;4981796;28;20038;-58
2023/05/17 07:53:03;;;;;;;210.75;18.58;;;14.10;78.30;;;;;;4984031;28;20078;-58
2023/05/17 07:55:29;;;;;;;106.47;14.57;;;14.10;78.40;;;;;;4964118;28;20027;-58
2023/05/17 07:57:54;;;;;;;68.38;9.73;;;14.10;78.40;;;;;;4965526;28;20272;-58
2023/05/17 08:00:21;;;;;;;106.47;11.00;;;14.10;78.10;;;;;;4981051;28;20033;-58
2023/05/17 08:02:47;;;;;;;57.83;5.97;;;14.20;78.40;;;;;;4984387;28;20034;-58
2023/05/17 08:05:12;;;;;;;38.40;6.00;;;14.20;78.30;;;;;;4975527;28;20449;-58
2023/05/17 08:07:38;;;;;;;30.90;5.15;;;14.20;78.20;;;;;;4969022;28;20039;-58
2023/05/17 08:10:04;;;;;;;33.78;5.60;;;14.20;78.30;;;;;;4983167;28;20034;-58
2023/05/17 08:12:29;;;;;;;23.55;5.35;;;14.30;78.40;;;;;;4983756;28;20472;-58
2023/05/17 08:14:55;;;;;;;40.63;5.07;;;14.30;78.20;;;;;;4969538;28;20038;-58
2023/05/17 08:17:21;;;;;;;42.95;6.15;;;14.30;78.00;;;;;;4982634;28;20027;-58
2023/05/17 08:19:46;;;;;;;39.80;5.35;;;14.40;77.90;;;;;;4982451;28;20042;-58
2023/05/17 08:22:12;;;;;;;34.40;5.97;;;14.40;77.90;;;;;;4981553;28;20041;-58
2023/05/17 08:24:38;;;;;;;44.28;6.25;;;14.40;77.80;;;;;;4979867;28;20049;-58
2023/05/17 08:27:04;;;;;;;43.17;5.95;;;14.50;77.80;;;;;;4981729;28;20034;-58
2023/05/17 08:29:29;;;;;;;44.35;6.00;;;14.50;77.70;;;;;;4983316;28;20023;-58
2023/05/17 08:31:55;;;;;;;44.33;5.70;;;14.50;77.80;;;;;;5009425;28;20050;-58
2023/05/17 08:34:21;;;;;;;47.92;7.75;;;14.60;77.70;;;;;;4981564;28;20391;-58
2023/05/17 08:36:46;;;;;;;35.47;5.40;;;14.60;77.50;;;;;;4982527;28;20031;-58
2023/05/17 08:39:12;;;;;;;45.63;6.88;;;14.60;77.40;;;;;;4980979;28;20054;-58
2023/05/17 08:41:38;;;;;;;54.85;6.93;;;14.70;77.30;;;;;;4981094;28;20109;-58
2023/05/17 08:44:04;;;;;;;41.72;7.43;;;14.70;77.30;;;;;;4981577;28;20035;-58
2023/05/17 08:46:30;;;;;;;54.40;7.05;;;14.70;77.80;;;;;;4983127;28;20094;-58
2023/05/17 08:48:58;;;;;;;48.85;7.53;;;14.70;77.10;;;;;;4966572;28;20054;-58
2023/05/17 08:51:25;;;;;;;48.72;7.63;;;14.80;77.20;;;;;;4984803;28;20027;-58
2023/05/17 08:53:50;;;;;;;47.17;6.70;;;14.80;77.40;;;;;;4982863;28;20087;-58
2023/05/17 08:56:18;;;;;;;54.33;8.40;;;14.80;77.50;;;;;;4985173;28;20117;-58
2023/05/17 08:58:44;;;;;;;44.58;6.50;;;14.90;77.40;;;;;;4964546;28;20051;-58
2023/05/17 09:01:10;;;;;;;52.90;8.10;;;14.90;77.20;;;;;;4984986;28;20053;-58
2023/05/17 09:03:36;;;;;;;45.75;7.53;;;14.90;76.90;;;;;;4987142;28;20054;-58
2023/05/17 09:06:02;;;;;;;65.13;8.20;;;15.00;76.90;;;;;;4986580;28;20030;-58
2023/05/17 09:08:28;;;;;;;38.95;6.57;;;15.00;77.00;;;;;;4998629;28;20043;-58
2023/05/17 09:10:55;;;;;;;55.22;6.45;;;15.00;76.80;;;;;;5012520;28;20041;-57
2023/05/17 09:13:21;;;;;;;49.15;7.13;;;15.00;76.80;;;;;;4979619;28;20216;-58
2023/05/17 09:15:46;;;;;;;65.10;8.00;;;15.10;76.70;;;;;;4985449;28;20039;-58
2023/05/17 09:18:12;;;;;;;62.42;8.00;;;15.10;76.50;;;;;;4983718;28;20033;-58
2023/05/17 09:20:38;;;;;;;63.22;8.77;;;15.10;76.40;;;;;;4986356;28;20098;-57
2023/05/17 09:23:05;;;;;;;64.18;9.88;;;15.10;76.70;;;;;;4986706;28;20113;-58
2023/05/17 09:25:31;;;;;;;50.60;8.68;;;15.20;76.20;;;;;;4983338;28;20031;-58
2023/05/17 09:28:06;;;;;;;52.22;9.25;;;15.20;76.10;;;;;;4984520;28;20041;-57
2023/05/17 09:30:33;;;;;;;65.63;10.13;;;15.20;76.30;;;;;;4976487;28;20031;-58
2023/05/17 09:33:06;;;;;;;65.15;9.73;;;15.20;76.30;;;;;;4986223;28;20027;-58
2023/05/17 09:35:32;;;;;;;85.30;10.88;;;15.20;76.50;;;;;;4984175;28;20057;-58
2023/05/17 09:38:17;;;;;;;64.43;9.55;;;15.20;76.20;;;;;;4985591;28;20047;-58
2023/05/17 09:40:44;;;;;;;80.93;10.23;;;15.30;75.90;;;;;;4995232;28;20047;-58
2023/05/17 09:43:10;;;;;;;76.05;10.88;;;15.30;76.00;;;;;;4977643;28;20035;-58
2023/05/17 09:45:35;;;;;;;228.23;25.50;;;15.30;75.80;;;;;;4980683;28;20058;-58
2023/05/17 09:48:15;;;;;;;73.63;12.75;;;15.30;75.70;;;;;;4997358;28;20027;-58
2023/05/17 09:50:49;;;;;;;80.03;11.23;;;15.40;75.90;;;;;;4966236;28;20028;-58
2023/05/17 09:53:41;;;;;;;100.53;12.32;;;15.40;75.80;;;;;;4982517;28;20031;-58
2023/05/17 09:56:08;;;;;;;95.50;13.45;;;15.40;75.70;;;;;;4968557;28;20562;-58
2023/05/17 09:58:35;;;;;;;125.35;15.00;;;15.40;75.80;;;;;;4982245;28;20031;-58
2023/05/17 10:01:02;;;;;;;111.63;13.20;;;15.40;75.40;;;;;;4985614;28;20087;-58
2023/05/17 10:03:35;;;;;;;83.30;12.07;;;15.50;75.30;;;;;;4974145;28;20090;-58
2023/05/17 10:06:04;;;;;;;76.07;11.98;;;15.50;75.30;;;;;;5006498;28;20027;-58
2023/05/17 10:08:30;;;;;;;86.75;11.65;;;15.50;75.10;;;;;;4981699;28;20019;-58
2023/05/17 10:11:04;;;;;;;121.85;15.80;;;15.50;75.10;;;;;;4983385;28;20023;-58
2023/05/17 10:13:53;;;;;;;113.55;14.38;;;15.60;74.80;;;;;;4982685;28;20104;-58
2023/05/17 10:16:19;;;;;;;78.75;10.85;;;15.60;74.40;;;;;;4969600;28;20030;-57
2023/05/17 10:18:45;;;;;;;66.18;11.15;;;15.60;74.30;;;;;;4995704;28;20037;-57
2023/05/17 10:21:10;;;;;;;78.30;11.52;;;15.70;74.50;;;;;;4982325;28;20156;-58
2023/05/17 10:23:37;;;;;;;80.85;11.85;;;15.70;74.30;;;;;;4982309;28;20090;-60
2023/05/17 10:26:03;;;;;;;80.00;10.90;;;15.70;74.30;;;;;;4974696;28;20023;-58
2023/05/17 10:28:28;;;;;;;69.60;10.85;;;15.80;74.20;;;;;;4988964;28;20051;-58
2023/05/17 10:30:54;;;;;;;78.15;11.65;;;15.80;74.20;;;;;;4997209;28;20031;-58
2023/05/17 10:33:20;;;;;;;73.30;9.98;;;15.90;74.30;;;;;;4996198;28;20030;-58
2023/05/17 10:35:46;;;;;;;69.03;11.00;;;15.90;74.20;;;;;;4985555;28;20050;-57
2023/05/17 10:38:12;;;;;;;76.47;10.30;;;15.90;74.10;;;;;;4984747;28;20126;-58
2023/05/17 10:40:38;;;;;;;63.72;9.85;;;15.90;73.80;;;;;;4965058;28;20043;-58
2023/05/17 10:43:03;;;;;;;74.80;11.20;;;16.00;73.70;;;;;;4982301;28;20077;-58
2023/05/17 10:45:29;;;;;;;86.10;11.43;;;16.00;73.40;;;;;;4979639;28;20031;-58
2023/05/17 10:47:55;;;;;;;67.68;9.15;;;16.00;73.30;;;;;;4979929;28;20022;-58
2023/05/17 10:50:25;;;;;;;64.72;8.45;;;16.10;73.40;;;;;;4980489;28;20054;-58
2023/05/17 10:52:51;;;;;;;72.57;10.30;;;16.10;73.30;;;;;;4984018;28;20035;-58
2023/05/17 10:55:21;;;;;;;81.00;9.77;;;16.20;73.40;;;;;;4986212;28;20038;-58
2023/05/17 10:58:07;;;;;;;41.80;8.07;;;16.20;73.20;;;;;;4984418;28;20034;-58
2023/05/17 11:00:33;;;;;;;54.05;7.50;;;16.20;73.20;;;;;;4970066;28;20071;-58
2023/05/17 11:03:12;;;;;;;50.88;7.97;;;16.20;73.00;;;;;;4989627;28;20090;-60
2023/05/17 11:05:40;;;;;;;46.97;7.82;;;16.30;72.60;;;;;;4983943;28;20046;-58
2023/05/17 11:08:14;;;;;;;61.58;8.93;;;16.30;72.70;;;;;;4983081;28;20033;-58
2023/05/17 11:11:03;;;;;;;52.60;8.63;;;16.40;72.50;;;;;;4971991;28;20321;-58
2023/05/17 11:13:28;;;;;;;47.85;7.85;;;16.40;72.50;;;;;;4982723;28;20046;-58
2023/05/17 11:16:04;;;;;;;42.92;7.18;;;16.40;72.60;;;;;;4982239;28;20169;-57
2023/05/17 11:19:06;;;;;;;43.38;7.38;;;16.50;72.70;;;;;;4950322;29;20464;-57
2023/05/17 11:21:32;;;;;;;47.42;7.90;;;16.50;72.90;;;;;;4967548;28;20035;-58
2023/05/17 11:24:00;;;;;;;45.15;7.03;;;16.50;72.70;;;;;;4976770;28;20078;-58
2023/05/17 11:26:32;;;;;;;50.97;7.45;;;16.60;72.30;;;;;;4982954;28;20042;-57
2023/05/17 11:29:00;;;;;;;37.33;7.57;;;16.60;72.30;;;;;;5008538;28;20038;-58
2023/05/17 11:31:30;;;;;;;52.63;6.57;;;16.70;72.10;;;;;;4984669;28;20112;-58
2023/05/17 11:33:57;;;;;;;35.22;6.65;;;16.70;71.80;;;;;;4992518;28;20038;-58
2023/05/17 11:36:22;;;;;;;45.40;7.05;;;16.80;71.60;;;;;;4975586;28;20117;-58
2023/05/17 11:38:49;;;;;;;50.92;6.57;;;16.80;71.60;;;;;;4966616;28;20096;-58
2023/05/17 11:41:16;;;;;;;47.92;7.07;;;16.80;71.50;;;;;;4983247;28;20042;-58
2023/05/17 11:43:45;;;;;;;50.78;6.72;;;16.90;71.30;;;;;;4982013;28;20038;-58
2023/05/17 11:46:10;;;;;;;41.70;6.57;;;16.90;71.00;;;;;;4982931;28;20034;-58
2023/05/17 11:48:36;;;;;;;34.13;6.38;;;16.90;70.40;;;;;;4994881;28;20039;-58
2023/05/17 11:51:01;;;;;;;35.15;5.45;;;16.90;69.90;;;;;;5011988;28;20042;-58
2023/05/17 11:53:27;;;;;;;35.75;6.32;;;16.90;70.10;;;;;;4979587;28;20030;-58
2023/05/17 11:55:52;;;;;;;46.45;6.57;;;16.90;70.30;;;;;;4980258;28;20050;-58
2023/05/17 11:58:28;;;;;;;44.78;6.85;;;16.90;69.90;;;;;;4974080;28;20035;-58
2023/05/17 12:00:54;;;;;;;;;;;16.90;69.50;;;;;;4974259;28;20038;-58
2023/05/17 12:03:25;;;;;;;43.15;6.60;;;16.90;69.50;;;;;;4983534;28;20362;-58
2023/05/17 12:06:15;;;;;;;46.97;6.30;;;17.00;69.80;;;;;;4982880;28;20039;-58
2023/05/17 12:08:45;;;;;;;58.55;9.80;;;17.00;69.70;;;;;;4982449;28;20351;-58
2023/05/17 12:11:13;;;;;;;97.40;11.93;;;17.00;69.40;;;;;;4984524;28;20035;-58
2023/05/17 12:13:40;;;;;;;85.80;12.77;;;17.10;69.20;;;;;;4982674;28;20050;-58
2023/05/17 12:16:11;;;;;;;104.05;12.65;;;17.10;69.20;;;;;;4993939;28;20034;-58
2023/05/17 12:18:41;;;;;;;82.68;11.45;;;17.10;69.40;;;;;;4986022;28;20038;-58
2023/05/17 12:21:07;;;;;;;83.32;11.13;;;17.10;69.10;;;;;;4987123;28;20546;-58
2023/05/17 12:23:38;;;;;;;85.82;10.52;;;17.10;68.70;;;;;;4985646;28;20440;-58
2023/05/17 12:26:08;;;;;;;76.20;9.57;;;17.20;69.10;;;;;;4984344;28;20031;-57
2023/05/17 12:28:35;;;;;;;92.10;11.77;;;17.20;68.70;;;;;;4983293;28;20027;-58
2023/05/17 12:31:03;;;;;;;83.25;10.32;;;17.20;68.50;;;;;;4983660;28;20333;-61
2023/05/17 12:33:34;;;;;;;77.90;12.13;;;17.20;68.50;;;;;;4980196;28;20038;-58
2023/05/17 12:36:00;;;;;;;98.97;12.02;;;17.30;68.60;;;;;;4982714;28;20035;-58